Terminal Aerodrome Forecast
Issued by NWS

Current Version | Previous Version | Text Only | Print | Product List | Glossary On
Versions: 1 2 3 4 5 6 7 8 9 10 11 12 13 14 15
000
FTUS41 KBTV 291138
TAFSLK
TAF
KSLK 291138Z 2912/3012 00000KT P6SM SCT200
     FM291500 16007KT P6SM BKN150 BKN200
     FM291800 17010KT P6SM OVC090
     FM292300 18012G20KT P6SM OVC050
     FM300100 18012G20KT 6SM -SN OVC035
     FM300300 19010G18KT 1 1/2SM -SN BR OVC020
     FM300900 20007KT 1SM -SN BR OVC009=

USA.gov is the U.S. government's official web portal to all federal, state and local government web resources and services.